Time;durP1;ratioP1;P1;durP2;ratioP2;P2;SDS_P1;SDS_P2;PMS_P1;PMS_P2;Temp;Humidity;BMP_temperature;BMP_pressure;BME280_temperature;BME280_humidity;BME280_pressure;Samples;Min_cycle;Max_cycle;Signal;HPM_P1;HPM_P2
2022/04/04 00:00:45;;;;;;;4.53;2.78;;;;;;;-1.15;48.63;98006.34;4997013;28;20046;-76
2022/04/04 00:03:11;;;;;;;6.28;3.08;;;;;;;-1.07;48.89;98015.81;4994328;28;20042;-76
2022/04/04 00:05:37;;;;;;;;;;;;;;;-0.92;48.38;98021.97;5026142;28;20053;-77
2022/04/04 00:08:03;;;;;;;4.35;2.80;;;;;;;-1.13;49.06;98005.56;4993098;28;20413;-77
2022/04/04 00:10:29;;;;;;;4.10;2.72;;;;;;;-1.29;49.22;97990.88;5009329;28;20129;-77
2022/04/04 00:12:54;;;;;;;3.88;2.45;;;;;;;-1.25;49.80;98015.53;4994419;28;20113;-76
2022/04/04 00:15:21;;;;;;;3.80;2.55;;;;;;;-1.36;49.87;98012.84;5024080;28;20601;-76
2022/04/04 00:17:47;;;;;;;3.88;2.70;;;;;;;-1.32;49.49;98016.28;4994103;28;20042;-75
2022/04/04 00:20:12;;;;;;;3.65;2.55;;;;;;;-1.38;49.77;98023.78;4994023;28;20516;-76
2022/04/04 00:22:38;;;;;;;3.88;2.53;;;;;;;-1.43;50.20;98025.41;4992639;28;20045;-76
2022/04/04 00:25:04;;;;;;;4.63;2.80;;;;;;;-1.50;50.21;98026.16;4982631;28;20520;-76
2022/04/04 00:27:30;;;;;;;4.35;2.80;;;;;;;-1.69;50.33;97999.56;4990722;28;20038;-75
2022/04/04 00:29:56;;;;;;;5.03;2.95;;;;;;;-1.61;50.02;98019.16;4994787;28;20034;-75
2022/04/04 00:32:22;;;;;;;;;;;;;;;-1.57;50.00;98023.47;4993134;28;20054;-78
2022/04/04 00:34:47;;;;;;;4.38;2.28;;;;;;;-1.73;50.70;98007.94;5026086;28;19965;-75
2022/04/04 00:37:14;;;;;;;3.65;2.72;;;;;;;-1.68;50.64;98022.44;4992818;28;20034;-75
2022/04/04 00:39:40;;;;;;;4.30;2.50;;;;;;;-1.64;50.06;98015.75;4986845;28;20041;-78
2022/04/04 00:42:07;;;;;;;8.95;2.55;;;;;;;-1.58;50.19;98020.91;4974453;28;22131;-76
2022/04/04 00:44:33;;;;;;;4.68;2.78;;;;;;;-1.64;49.79;98001.34;5005276;28;20034;-76
2022/04/04 00:46:58;;;;;;;;;;;;;;;-1.53;49.89;98032.03;4976781;28;20100;-76
2022/04/04 00:49:24;;;;;;;3.97;2.67;;;;;;;-1.59;50.11;98035.31;4987097;28;19914;-76
2022/04/04 00:51:50;;;;;;;4.05;2.53;;;;;;;-1.61;49.29;98034.44;4981880;28;20097;-76
2022/04/04 00:54:15;;;;;;;4.85;2.80;;;;;;;-1.72;49.66;98009.66;5023202;28;20043;-75
2022/04/04 00:56:42;;;;;;;4.57;2.50;;;;;;;-1.69;50.40;98030.91;5025010;28;20034;-75
2022/04/04 00:59:13;;;;;;;4.82;2.72;;;;;;;-1.68;49.95;98032.63;4990193;28;20046;-75
2022/04/04 01:01:41;;;;;;;4.35;2.60;;;;;;;-1.82;49.67;98023.88;4975605;28;20419;-75
2022/04/04 01:04:11;;;;;;;4.35;3.05;;;;;;;-1.84;50.55;98012.81;5001330;28;20037;-75
2022/04/04 01:06:38;;;;;;;4.00;2.60;;;;;;;-1.68;49.94;98035.16;5011223;28;20061;-76
2022/04/04 01:09:04;;;;;;;3.83;3.03;;;;;;;-1.80;50.49;98014.59;4983254;28;20054;-76
2022/04/04 01:11:30;;;;;;;5.55;2.70;;;;;;;-1.87;50.87;98016.19;5019772;28;20064;-75
2022/04/04 01:13:55;;;;;;;4.88;2.90;;;;;;;-2.09;51.29;97989.50;4991974;28;20034;-77
2022/04/04 01:16:21;;;;;;;4.95;3.00;;;;;;;-1.82;51.23;98029.81;4989804;28;20043;-76
2022/04/04 01:18:47;;;;;;;4.22;2.63;;;;;;;-2.02;51.32;98000.63;5026215;28;20121;-75
2022/04/04 01:21:18;;;;;;;3.78;2.67;;;;;;;-1.87;51.48;98030.56;4992277;28;20837;-76
2022/04/04 01:23:44;;;;;;;5.60;2.90;;;;;;;-1.91;51.70;98026.25;4991809;28;20110;-76
2022/04/04 01:26:11;;;;;;;4.40;2.72;;;;;;;-1.98;51.06;98034.56;4991940;28;20149;-76
2022/04/04 01:28:37;;;;;;;4.45;3.10;;;;;;;-1.89;51.53;98044.91;4976566;28;20050;-76
2022/04/04 01:31:04;;;;;;;4.30;2.67;;;;;;;-1.65;52.09;98052.13;4962053;28;20569;-75
2022/04/04 01:33:30;;;;;;;5.28;3.28;;;;;;;-1.51;51.97;98058.34;4992996;28;20062;-75
2022/04/04 01:35:57;;;;;;;4.45;3.00;;;;;;;-1.40;51.27;98040.72;4991609;28;20034;-76
2022/04/04 01:38:27;;;;;;;4.60;2.70;;;;;;;-1.20;51.29;98052.09;4983236;28;20053;-76
2022/04/04 01:40:52;;;;;;;5.10;3.10;;;;;;;-1.24;51.31;98052.00;5018324;28;20137;-75
2022/04/04 01:43:18;;;;;;;4.35;2.70;;;;;;;-1.34;51.38;98017.94;5007829;28;20169;-76
2022/04/04 01:48:34;;;;;;;4.75;2.83;;;;;;;-1.16;51.01;98076.75;4991997;28;20104;-75
2022/04/04 01:51:00;;;;;;;4.22;3.05;;;;;;;-1.07;50.82;98076.06;5016729;28;20034;-75
2022/04/04 01:53:25;;;;;;;6.25;3.97;;;;;;;-1.23;51.09;98079.19;4986678;28;20065;-75
2022/04/04 01:55:56;;;;;;;6.40;3.97;;;;;;;-1.56;51.64;98081.16;5024212;28;20053;-76
2022/04/04 01:58:23;;;;;;;5.95;3.17;;;;;;;-1.65;52.13;98075.91;4991764;28;20098;-76
2022/04/04 02:00:49;;;;;;;7.45;2.90;;;;;;;-1.56;52.65;98070.09;4991496;28;20493;-76
2022/04/04 02:03:15;;;;;;;4.53;2.67;;;;;;;-1.63;52.07;98079.31;5008271;28;20493;-76
2022/04/04 02:05:40;;;;;;;4.53;3.05;;;;;;;-1.59;52.58;98086.19;4977368;28;20061;-77
2022/04/04 02:08:06;;;;;;;5.03;2.88;;;;;;;-1.45;52.37;98085.56;4974646;28;20432;-76
2022/04/04 02:10:32;;;;;;;4.80;3.00;;;;;;;-1.52;52.51;98079.50;4982354;28;20050;-76
2022/04/04 02:12:58;;;;;;;6.90;3.60;;;;;;;-1.56;51.34;98086.25;4977996;28;20070;-76
2022/04/04 02:15:24;;;;;;;6.28;3.75;;;;;;;-1.47;51.69;98097.38;5025348;28;20038;-76
2022/04/04 02:17:51;;;;;;;5.85;2.95;;;;;;;-1.68;51.81;98072.44;4995522;28;20473;-75
2022/04/04 02:20:19;;;;;;;10.05;3.47;;;;;;;-1.68;51.97;98073.28;4994854;28;20105;-76
2022/04/04 02:22:45;;;;;;;5.03;3.03;;;;;;;-1.71;51.39;98049.50;5018202;28;20190;-76
2022/04/04 02:25:12;;;;;;;5.25;3.08;;;;;;;-1.26;51.56;98096.94;4990755;28;20452;-75
2022/04/04 02:27:38;;;;;;;6.30;3.10;;;;;;;-1.42;50.51;98076.31;5013566;28;20046;-76
2022/04/04 02:30:04;;;;;;;4.32;2.60;;;;;;;-1.31;49.99;98107.03;4996698;28;20042;-76
2022/04/04 02:32:31;;;;;;;4.40;2.65;;;;;;;-1.20;50.00;98100.44;4991963;28;20070;-76
2022/04/04 02:34:57;;;;;;;3.80;2.65;;;;;;;-1.09;50.16;98106.56;4975536;28;20034;-76
2022/04/04 02:37:22;;;;;;;5.05;2.75;;;;;;;-1.18;49.19;98114.06;4975327;28;20047;-76
2022/04/04 02:39:48;;;;;;;4.47;2.67;;;;;;;-1.30;48.84;98108.72;4975561;28;20038;-77
2022/04/04 02:42:14;;;;;;;5.45;2.60;;;;;;;-1.32;49.39;98098.53;4975502;28;20093;-76
2022/04/04 02:44:39;;;;;;;4.57;2.35;;;;;;;-1.20;49.24;98110.59;4975216;28;20451;-77
2022/04/04 02:47:05;;;;;;;3.75;2.40;;;;;;;-1.22;48.99;98116.50;4975164;28;20072;-77
2022/04/04 02:49:31;;;;;;;4.30;2.60;;;;;;;-1.28;48.87;98119.81;4959257;28;20382;-78
2022/04/04 02:51:57;;;;;;;5.63;2.90;;;;;;;-1.50;49.35;98094.81;4976567;28;20490;-77
2022/04/04 02:54:23;;;;;;;5.45;2.80;;;;;;;-1.38;49.21;98120.44;5003805;28;20039;-77
2022/04/04 02:56:49;;;;;;;;;;;;;;;-1.38;49.55;98123.00;4970876;28;20088;-76
2022/04/04 02:59:15;;;;;;;4.47;2.95;;;;;;;-1.74;50.05;98111.31;5010986;28;19948;-75
2022/04/04 03:01:48;;;;;;;5.80;3.92;;;;;;;-1.70;49.84;98123.25;4990152;28;20433;-76
2022/04/04 03:04:15;;;;;;;6.43;2.95;;;;;;;-1.72;50.56;98122.38;4994441;28;20545;-75
2022/04/04 03:06:40;;;;;;;6.10;3.05;;;;;;;-1.76;50.83;98138.38;4994321;28;20034;-76
2022/04/04 03:09:06;;;;;;;4.40;3.10;;;;;;;-1.86;51.04;98111.06;4993253;28;20034;-76
2022/04/04 03:11:32;;;;;;;4.80;3.03;;;;;;;-1.93;50.85;98139.72;4994414;28;20109;-77
2022/04/04 03:13:58;;;;;;;;;;;;;;;-1.87;51.73;98132.22;5011111;28;20655;-77
2022/04/04 03:16:23;;;;;;;4.38;2.83;;;;;;;-1.89;51.09;98136.41;4987762;28;19913;-78
2022/04/04 03:18:49;;;;;;;5.03;2.70;;;;;;;-1.96;51.55;98124.41;4975119;28;20047;-77
2022/04/04 03:21:15;;;;;;;4.25;2.80;;;;;;;-1.73;51.31;98141.00;4986300;28;20046;-77
2022/04/04 03:23:41;;;;;;;5.55;2.80;;;;;;;-1.59;50.86;98120.91;4990272;28;20518;-76
2022/04/04 03:26:07;;;;;;;4.60;3.05;;;;;;;-1.68;49.99;98091.09;5006692;28;20038;-75
2022/04/04 03:28:33;;;;;;;4.50;3.08;;;;;;;-1.35;49.93;98125.59;4957028;28;20509;-75
2022/04/04 03:30:59;;;;;;;6.25;2.88;;;;;;;-1.35;49.33;98115.44;4982661;28;20046;-76
2022/04/04 03:33:24;;;;;;;11.70;6.95;;;;;;;-1.47;49.27;98090.63;4993711;28;20505;-76
2022/04/04 03:35:50;;;;;;;6.07;2.95;;;;;;;-1.29;48.83;98130.78;5009243;28;20098;-78
2022/04/04 03:38:16;;;;;;;4.90;2.78;;;;;;;-1.42;49.27;98136.47;4977880;28;20034;-76
2022/04/04 03:40:42;;;;;;;6.38;3.20;;;;;;;-1.43;49.42;98132.22;4993977;28;20057;-76
2022/04/04 03:43:08;;;;;;;5.05;2.90;;;;;;;-1.55;49.99;98113.38;4977898;28;20121;-75
2022/04/04 03:45:34;;;;;;;7.38;3.10;;;;;;;-1.57;49.48;98120.09;4995068;28;20150;-75
2022/04/04 03:48:00;;;;;;;4.57;3.13;;;;;;;-1.47;49.44;98138.09;5010112;28;20038;-75
2022/04/04 03:50:26;;;;;;;5.32;2.85;;;;;;;-1.36;49.04;98144.25;5023367;28;20474;-77
2022/04/04 03:52:52;;;;;;;5.18;3.22;;;;;;;-1.42;49.33;98139.91;5015537;28;20046;-75
2022/04/04 03:55:19;;;;;;;8.98;2.85;;;;;;;-1.43;49.04;98147.50;4993301;28;20128;-74
2022/04/04 03:57:45;;;;;;;4.38;2.78;;;;;;;-1.53;49.25;98136.28;5009377;28;20393;-75
2022/04/04 04:00:11;;;;;;;7.93;2.92;;;;;;;-1.32;49.47;98143.47;4993566;28;20030;-76
2022/04/04 04:02:37;;;;;;;5.07;2.85;;;;;;;-1.24;49.07;98149.53;4988107;28;20559;-77
2022/04/04 04:05:04;;;;;;;8.80;3.80;;;;;;;-1.13;48.70;98148.06;5015820;28;20034;-77
2022/04/04 04:07:30;;;;;;;10.40;5.55;;;;;;;-1.29;48.41;98125.69;5009069;28;20109;-77
2022/04/04 04:09:56;;;;;;;;;;;;;;;-0.87;49.18;98165.47;5009901;28;20046;-74
2022/04/04 04:12:21;;;;;;;5.10;2.88;;;;;;;-0.87;47.96;98166.34;4993960;28;19928;-76
2022/04/04 04:14:48;;;;;;;4.38;2.78;;;;;;;-0.98;47.69;98155.09;4992933;28;20042;-77
2022/04/04 04:17:16;;;;;;;10.57;3.15;;;;;;;-1.16;47.92;98122.56;5009512;28;20405;-77
2022/04/04 04:22:26;;;;;;;5.35;2.50;;;;;;;-1.09;47.80;98165.09;4980551;28;20077;-77
2022/04/04 04:24:52;;;;;;;3.88;2.53;;;;;;;-1.08;48.28;98161.72;4975372;28;20568;-77
2022/04/04 04:27:17;;;;;;;5.57;3.47;;;;;;;-1.00;47.79;98166.97;5008960;28;20041;-77
2022/04/04 04:29:43;;;;;;;4.22;3.13;;;;;;;-0.99;48.08;98178.00;4992967;28;20057;-76
2022/04/04 04:32:09;;;;;;;5.75;3.53;;;;;;;-1.14;48.49;98166.72;5025942;28;20050;-78
2022/04/04 04:34:35;;;;;;;4.82;3.42;;;;;;;-0.96;48.53;98171.28;4992622;28;20505;-78
2022/04/04 04:37:01;;;;;;;15.18;3.63;;;;;;;-0.93;47.92;98180.63;4993980;28;20069;-76
2022/04/04 04:39:27;;;;;;;;;;;;;;;-0.91;47.53;98184.94;4993941;28;20073;-77
2022/04/04 04:41:53;;;;;;;6.97;3.47;;;;;;;-0.93;48.04;98178.09;4992529;28;19959;-76
2022/04/04 04:44:18;;;;;;;;;;;;;;;-0.61;48.33;98191.38;5009486;28;20030;-78
2022/04/04 04:46:44;;;;;;;7.18;3.58;;;;;;;-0.41;46.93;98190.00;5009195;28;20728;-76
2022/04/04 04:49:10;;;;;;;7.25;3.53;;;;;;;-0.37;46.17;98178.16;5025388;28;20040;-78
2022/04/04 04:51:36;;;;;;;8.85;3.40;;;;;;;-0.36;46.09;98180.75;4996756;28;20046;-77
2022/04/04 04:54:03;;;;;;;4.80;3.20;;;;;;;-0.39;46.46;98172.19;5002956;28;20038;-77
2022/04/04 04:56:30;;;;;;;6.68;3.20;;;;;;;-0.44;46.37;98187.41;4999612;28;20046;-77
2022/04/04 04:58:56;;;;;;;3.90;2.72;;;;;;;-0.31;47.04;98189.31;5008740;28;20510;-77
2022/04/04 05:01:21;;;;;;;8.77;2.97;;;;;;;-0.64;46.22;98141.25;4984046;28;20085;-76
2022/04/04 05:03:49;;;;;;;5.38;3.10;;;;;;;-0.36;46.83;98174.78;5020245;28;20049;-77
2022/04/04 05:06:15;;;;;;;10.23;4.05;;;;;;;-0.46;46.01;98157.63;4977595;28;20038;-76
2022/04/04 05:08:41;;;;;;;5.15;2.60;;;;;;;-0.08;46.23;98197.31;4992178;28;20137;-76
2022/04/04 05:11:07;;;;;;;6.53;4.03;;;;;;;0.03;45.86;98196.59;5011468;28;20041;-75
2022/04/04 05:13:32;;;;;;;;;;;;;;;-0.02;45.22;98192.28;4992868;28;20054;-76
2022/04/04 05:15:58;;;;;;;7.22;4.13;;;;;;;-0.28;46.18;98166.41;4992376;28;19965;-77
2022/04/04 05:18:25;;;;;;;6.18;4.03;;;;;;;-0.12;46.22;98205.72;4992188;28;20042;-75
2022/04/04 05:20:50;;;;;;;7.38;3.72;;;;;;;-0.19;46.41;98190.31;4993534;28;20066;-77
2022/04/04 05:23:16;;;;;;;9.95;3.25;;;;;;;-0.04;46.52;98201.63;4985273;28;20066;-77
2022/04/04 05:25:42;;;;;;;6.43;3.22;;;;;;;-0.11;46.12;98160.72;4989103;28;20141;-77
2022/04/04 05:28:10;;;;;;;7.78;3.50;;;;;;;0.07;46.19;98200.91;4976718;28;20049;-77
2022/04/04 05:30:36;;;;;;;8.13;3.70;;;;;;;-0.24;46.99;98195.34;4993174;28;20049;-76
2022/04/04 05:33:02;;;;;;;6.13;3.80;;;;;;;-0.36;47.63;98196.03;4991924;28;20074;-77
2022/04/04 05:35:28;;;;;;;6.82;3.85;;;;;;;-0.26;47.91;98209.78;4957013;28;20062;-77
2022/04/04 05:37:54;;;;;;;6.35;3.70;;;;;;;-0.47;48.18;98194.13;4957102;28;20548;-76
2022/04/04 05:40:24;;;;;;;5.82;3.67;;;;;;;-0.23;48.06;98216.59;4958350;28;20045;-76
2022/04/04 05:42:50;;;;;;;6.32;3.60;;;;;;;-0.26;47.49;98189.38;4992425;28;20053;-77
2022/04/04 05:45:16;;;;;;;5.72;3.30;;;;;;;-0.21;47.64;98190.31;5021937;28;20034;-76
2022/04/04 05:47:41;;;;;;;6.88;3.80;;;;;;;-0.23;48.22;98220.00;4956769;28;20073;-78
2022/04/04 05:50:07;;;;;;;5.70;3.13;;;;;;;-0.17;48.09;98193.75;4973940;28;20126;-77
2022/04/04 05:52:34;;;;;;;9.63;3.50;;;;;;;0.17;47.87;98218.03;4951061;28;20642;-77
2022/04/04 05:55:02;;;;;;;6.32;3.70;;;;;;;-0.07;47.98;98183.72;4984101;28;20034;-77
2022/04/04 05:57:34;;;;;;;6.30;3.60;;;;;;;-0.09;48.28;98199.81;4981397;28;20421;-77
2022/04/04 06:00:00;;;;;;;3.55;2.72;;;;;;;0.17;48.15;98198.50;5001426;28;20129;-76
2022/04/04 06:02:27;;;;;;;8.77;3.95;;;;;;;0.25;47.61;98190.94;5009957;28;20277;-75
2022/04/04 06:04:53;;;;;;;8.48;4.03;;;;;;;0.07;47.64;98178.81;5012737;28;20053;-77
2022/04/04 06:07:19;;;;;;;11.15;6.03;;;;;;;0.06;47.95;98199.19;4995717;28;20093;-76
2022/04/04 06:09:45;;;;;;;6.43;4.05;;;;;;;-0.01;48.55;98199.09;5010948;28;20047;-78
2022/04/04 06:12:10;;;;;;;4.90;3.10;;;;;;;0.17;48.45;98203.59;5012188;28;20092;-79
2022/04/04 06:14:36;;;;;;;5.03;3.40;;;;;;;0.31;48.18;98196.13;4977729;28;20042;-77
2022/04/04 06:17:05;;;;;;;8.60;4.78;;;;;;;0.36;47.74;98184.28;4986320;28;20076;-77
2022/04/04 06:19:32;;;;;;;6.13;3.42;;;;;;;0.90;47.30;98229.16;5009909;28;20068;-77
2022/04/04 06:21:58;;;;;;;6.22;3.60;;;;;;;0.87;46.87;98197.63;4985780;28;20564;-78
2022/04/04 06:24:23;;;;;;;9.38;3.05;;;;;;;0.92;47.00;98201.13;4995945;28;20417;-77
2022/04/04 06:26:49;;;;;;;9.50;3.95;;;;;;;0.86;46.34;98180.59;4995423;28;20034;-79
2022/04/04 06:29:15;;;;;;;5.13;3.63;;;;;;;1.05;47.19;98212.28;4998709;28;20081;-78
2022/04/04 06:31:41;;;;;;;8.23;3.58;;;;;;;0.97;47.56;98227.56;4999466;28;20050;-77
2022/04/04 06:34:10;;;;;;;10.88;4.20;;;;;;;0.56;48.09;98191.34;4985443;28;20045;-77
2022/04/04 06:36:38;;;;;;;8.32;3.70;;;;;;;0.93;48.04;98229.22;5007141;28;20475;-77
2022/04/04 06:39:05;;;;;;;7.28;3.83;;;;;;;0.68;48.27;98204.22;4979604;28;20396;-77
2022/04/04 06:41:31;;;;;;;7.78;3.63;;;;;;;0.75;48.50;98189.00;4995299;28;20108;-76
2022/04/04 06:43:58;;;;;;;11.13;3.78;;;;;;;1.02;48.30;98208.03;4957365;28;20035;-77
2022/04/04 06:46:25;;;;;;;6.28;3.90;;;;;;;0.84;48.17;98203.56;5004064;28;20568;-77
2022/04/04 06:48:51;;;;;;;6.35;3.92;;;;;;;0.74;48.07;98206.88;4979280;28;20413;-77
2022/04/04 06:51:18;;;;;;;9.73;4.10;;;;;;;0.47;48.60;98203.16;5001758;28;20490;-76
2022/04/04 06:53:45;;;;;;;6.50;3.80;;;;;;;0.30;49.18;98213.97;5022104;28;20121;-76
2022/04/04 06:56:11;;;;;;;8.60;3.90;;;;;;;-0.03;49.42;98203.31;4950672;28;20104;-77
2022/04/04 06:58:36;;;;;;;;;;;;;;;0.00;49.93;98245.84;4968150;28;20078;-78
2022/04/04 07:01:02;;;;;;;6.20;3.63;;;;;;;-0.10;49.78;98242.28;4960700;28;20392;-78
2022/04/04 07:03:28;;;;;;;7.28;3.78;;;;;;;-0.21;50.75;98210.69;4991705;28;20043;-77
2022/04/04 07:05:54;;;;;;;6.38;3.47;;;;;;;0.10;50.24;98229.84;5004895;28;20387;-78
2022/04/04 07:08:21;;;;;;;6.97;3.45;;;;;;;0.25;49.77;98247.91;5011320;28;20518;-80
2022/04/04 07:10:47;;;;;;;4.93;3.38;;;;;;;0.29;50.22;98228.41;5011050;28;20089;-77
2022/04/04 07:13:16;;;;;;;7.75;4.53;;;;;;;0.53;49.80;98232.13;5010830;28;20493;-79
2022/04/04 07:15:43;;;;;;;8.95;3.45;;;;;;;0.73;48.90;98216.22;4995079;28;20034;-78
2022/04/04 07:18:09;;;;;;;7.50;3.72;;;;;;;0.94;47.96;98215.59;4994286;28;20088;-81
2022/04/04 07:20:35;;;;;;;4.88;3.25;;;;;;;1.07;47.29;98244.69;4986508;28;20182;-77
2022/04/04 07:23:00;;;;;;;5.22;3.13;;;;;;;0.68;47.55;98201.69;5005297;28;20568;-76
2022/04/04 07:25:28;;;;;;;6.97;3.35;;;;;;;1.00;47.81;98245.44;4987884;28;20038;-77
2022/04/04 07:27:54;;;;;;;9.68;3.50;;;;;;;0.91;47.39;98224.91;4985961;28;20454;-77
2022/04/04 07:30:20;;;;;;;6.90;3.88;;;;;;;1.04;48.27;98220.81;4991775;28;20262;-78
2022/04/04 07:32:50;;;;;;;11.65;3.70;;;;;;;1.57;47.32;98234.09;4982703;28;20048;-78
2022/04/04 07:35:16;;;;;;;9.23;4.18;;;;;;;1.98;46.01;98246.38;5011283;28;20038;-79
2022/04/04 07:37:42;;;;;;;5.72;3.22;;;;;;;2.10;45.37;98245.56;5010826;28;20038;-77
2022/04/04 07:40:12;;;;;;;4.13;2.85;;;;;;;1.65;45.01;98188.13;4950387;28;20050;-77
2022/04/04 07:42:38;;;;;;;4.15;2.90;;;;;;;1.74;45.36;98195.88;5009019;28;20629;-78
2022/04/04 07:45:05;;;;;;;8.15;2.97;;;;;;;2.22;44.12;98225.19;4994483;28;20485;-76
2022/04/04 07:47:31;;;;;;;6.20;2.70;;;;;;;2.58;43.65;98250.16;5007646;28;20497;-77
2022/04/04 07:49:57;;;;;;;4.88;3.03;;;;;;;2.49;43.38;98199.75;4980748;28;20037;-77
2022/04/04 07:52:23;;;;;;;6.47;3.45;;;;;;;2.67;42.97;98211.78;4977759;28;20134;-77
2022/04/04 07:54:48;;;;;;;7.22;3.03;;;;;;;2.87;42.71;98201.59;4992583;28;20159;-78
2022/04/04 07:57:15;;;;;;;6.60;3.40;;;;;;;3.20;42.65;98221.31;5004562;28;20177;-77
2022/04/04 07:59:41;;;;;;;4.97;2.92;;;;;;;3.20;40.89;98194.84;5026759;28;20050;-77
2022/04/04 08:02:07;;;;;;;4.70;2.72;;;;;;;3.62;40.86;98244.44;4994028;28;20042;-77
2022/04/04 08:04:32;;;;;;;5.72;2.90;;;;;;;3.62;40.77;98244.44;5013306;28;20048;-77
2022/04/04 08:06:59;;;;;;;5.72;2.45;;;;;;;3.53;39.79;98230.78;4976385;28;20038;-77
2022/04/04 08:09:26;;;;;;;6.88;2.83;;;;;;;3.87;39.23;98253.88;4978803;28;20038;-76
2022/04/04 08:11:54;;;;;;;6.75;2.90;;;;;;;4.04;38.83;98203.41;5007066;28;20053;-79
2022/04/04 08:14:21;;;;;;;3.72;2.40;;;;;;;4.45;38.67;98205.03;4975178;28;20038;-77
2022/04/04 08:16:47;;;;;;;5.22;3.55;;;;;;;4.76;37.03;98194.63;4991167;28;20046;-78
2022/04/04 08:19:13;;;;;;;4.43;2.55;;;;;;;5.16;36.67;98215.00;5006439;28;20038;-79
2022/04/04 08:21:41;;;;;;;;;;;;;;;5.58;36.49;98247.31;4958483;28;20050;-78
2022/04/04 08:24:08;;;;;;;7.75;2.42;;;;;;;5.83;35.66;98245.41;4958314;28;20004;-78
2022/04/04 08:26:35;;;;;;;3.65;2.28;;;;;;;6.06;34.25;98210.06;4974242;28;20042;-77
2022/04/04 08:29:01;;;;;;;7.28;2.70;;;;;;;5.88;33.31;98207.63;4974205;28;20473;-79
2022/04/04 08:31:27;;;;;;;7.60;4.78;;;;;;;5.95;33.84;98242.75;4957702;28;20058;-77
2022/04/04 08:33:53;;;;;;;4.20;2.35;;;;;;;6.05;32.13;98243.56;4973716;28;20039;-78
2022/04/04 08:36:19;;;;;;;3.67;2.10;;;;;;;5.99;32.76;98210.13;4989904;28;20049;-78
2022/04/04 08:38:45;;;;;;;3.97;1.77;;;;;;;6.13;32.21;98216.00;4957890;28;20043;-78
2022/04/04 08:41:10;;;;;;;4.75;2.58;;;;;;;5.86;31.56;98209.34;5006662;28;20101;-78
2022/04/04 08:43:37;;;;;;;4.70;2.30;;;;;;;6.33;32.36;98237.28;4989813;28;20030;-77
2022/04/04 08:46:05;;;;;;;3.55;1.85;;;;;;;6.20;32.10;98189.34;4990599;28;20101;-77
2022/04/04 08:48:31;;;;;;;4.25;1.90;;;;;;;6.39;30.87;98226.06;5022863;28;20035;-78
2022/04/04 08:50:57;;;;;;;;;;;;;;;6.35;31.89;98232.94;4989994;28;20045;-77
2022/04/04 08:53:22;;;;;;;3.50;1.98;;;;;;;6.14;31.03;98222.00;4989666;28;19918;-76
2022/04/04 08:55:48;;;;;;;3.05;1.80;;;;;;;6.41;31.62;98231.19;4971892;28;20418;-78
2022/04/04 08:58:14;;;;;;;4.32;1.80;;;;;;;6.86;31.14;98206.63;4964716;28;20038;-78
2022/04/04 09:00:40;;;;;;;3.22;1.80;;;;;;;7.46;30.20;98229.00;4981149;28;20401;-77
2022/04/04 09:03:06;;;;;;;6.22;1.80;;;;;;;7.91;29.44;98201.63;5007422;28;20113;-78
2022/04/04 09:05:49;;;;;;;5.15;2.42;;;;;;;8.40;28.18;98200.81;4991798;28;20096;-78
2022/04/04 09:08:15;;;;;;;3.28;1.88;;;;;;;9.39;27.82;98229.81;5006484;28;20054;-76
2022/04/04 09:10:41;;;;;;;7.40;3.72;;;;;;;10.01;24.60;98229.22;4976082;28;20438;-77
2022/04/04 09:13:25;;;;;;;3.30;1.90;;;;;;;10.41;23.29;98220.47;5024508;28;20391;-78
2022/04/04 09:15:55;;;;;;;5.63;2.15;;;;;;;11.15;25.52;98230.47;5008569;28;20049;-77
2022/04/04 09:18:36;;;;;;;3.03;1.60;;;;;;;11.62;23.18;98223.00;4975581;28;20089;-77
2022/04/04 09:21:26;;;;;;;3.58;1.70;;;;;;;12.40;23.72;98224.81;5024887;28;20073;-77
2022/04/04 09:23:56;;;;;;;4.10;1.85;;;;;;;13.15;20.66;98220.38;4987244;28;20105;-77
2022/04/04 09:26:42;;;;;;;2.42;1.60;;;;;;;13.20;20.57;98218.44;4972741;28;20058;-79
2022/04/04 09:29:18;;;;;;;3.60;1.85;;;;;;;12.99;19.95;98227.03;4974630;28;20074;-77
2022/04/04 09:31:52;;;;;;;5.80;1.60;;;;;;;12.87;20.50;98230.09;4973120;28;20130;-78
2022/04/04 09:34:19;;;;;;;2.65;1.55;;;;;;;12.77;20.73;98190.53;4969999;28;20527;-77
2022/04/04 09:36:48;;;;;;;4.93;1.85;;;;;;;13.40;21.49;98230.72;4957002;28;20100;-77
2022/04/04 09:39:14;;;;;;;5.05;1.65;;;;;;;13.97;19.94;98211.09;4957068;28;20046;-77
2022/04/04 09:41:40;;;;;;;4.70;1.70;;;;;;;14.61;20.37;98197.09;4996941;28;20112;-78
2022/04/04 09:44:07;;;;;;;;;;;;;;;15.69;18.56;98230.50;4992945;28;20086;-78
2022/04/04 09:46:36;;;;;;;10.13;1.90;;;;;;;16.24;18.26;98201.66;4989389;28;19968;-78
2022/04/04 09:49:05;;;;;;;3.63;1.83;;;;;;;17.28;18.78;98226.81;4989992;28;20047;-77
2022/04/04 09:51:42;;;;;;;3.70;1.60;;;;;;;17.32;17.55;98185.53;4974412;28;20035;-79
2022/04/04 09:54:19;;;;;;;3.05;1.60;;;;;;;17.67;16.06;98234.25;4957029;28;20041;-77
2022/04/04 09:56:46;;;;;;;3.10;1.70;;;;;;;17.60;16.23;98192.75;4949115;28;20450;-78
2022/04/04 09:59:14;;;;;;;2.90;1.70;;;;;;;17.81;16.03;98203.81;4969893;28;20092;-77
2022/04/04 10:01:44;;;;;;;3.15;1.80;;;;;;;18.12;15.25;98202.91;4986962;28;20517;-78
2022/04/04 10:04:12;;;;;;;4.97;2.10;;;;;;;17.73;15.26;98197.25;4983300;28;20030;-77
2022/04/04 10:06:38;;;;;;;4.53;1.90;;;;;;;17.45;15.55;98191.81;4977050;28;20776;-79
2022/04/04 10:09:05;;;;;;;3.92;1.60;;;;;;;17.81;16.22;98215.16;5009875;28;20090;-77
2022/04/04 10:11:30;;;;;;;;;;;;;;;18.46;17.63;98225.41;4978313;28;20552;-78
2022/04/04 10:13:57;;;;;;;3.55;1.88;;;;;;;18.62;14.92;98220.94;4979197;28;19917;-77
2022/04/04 10:16:22;;;;;;;5.07;2.63;;;;;;;18.11;14.82;98190.75;4981452;28;20038;-77
2022/04/04 10:18:49;;;;;;;3.05;1.98;;;;;;;18.36;15.13;98216.38;4990935;28;20046;-79
2022/04/04 10:21:15;;;;;;;2.78;1.52;;;;;;;17.08;15.36;98227.03;4974909;28;20047;-78
2022/04/04 10:23:41;;;;;;;2.65;1.58;;;;;;;15.92;17.03;98215.47;4990399;28;20414;-78
2022/04/04 10:26:07;;;;;;;2.08;1.23;;;;;;;15.74;17.03;98223.28;4973384;28;20041;-77
2022/04/04 10:28:38;;;;;;;2.10;1.50;;;;;;;15.57;16.91;98223.19;4990185;28;20051;-78
2022/04/04 10:31:17;;;;;;;2.95;1.63;;;;;;;14.75;17.26;98193.88;4989710;28;20079;-77
2022/04/04 10:33:43;;;;;;;4.00;1.55;;;;;;;15.51;17.79;98181.69;4973671;28;20054;-76
2022/04/04 10:36:11;;;;;;;4.05;1.65;;;;;;;15.67;16.38;98202.75;4959457;28;20050;-79
2022/04/04 10:38:46;;;;;;;2.83;1.85;;;;;;;14.63;17.89;98184.84;4993041;28;20050;-78
2022/04/04 10:41:19;;;;;;;2.88;1.40;;;;;;;14.37;18.02;98187.72;4961406;28;20205;-79
2022/04/04 10:43:49;;;;;;;3.70;1.60;;;;;;;14.84;18.04;98223.97;4962896;28;20039;-78
2022/04/04 10:46:25;;;;;;;2.47;1.40;;;;;;;14.24;17.48;98182.16;4993079;28;20049;-77
2022/04/04 10:48:52;;;;;;;3.63;1.75;;;;;;;14.32;18.40;98185.28;4976863;28;20039;-78
2022/04/04 10:51:28;;;;;;;2.15;1.20;;;;;;;14.30;17.95;98191.50;4993002;28;20050;-78
2022/04/04 10:53:57;;;;;;;2.13;1.23;;;;;;;14.59;18.17;98178.06;4994609;28;20137;-77
2022/04/04 10:56:44;;;;;;;5.82;1.55;;;;;;;14.44;18.58;98241.34;5030117;28;20529;-77
2022/04/04 10:59:16;;;;;;;2.58;1.50;;;;;;;14.41;18.21;98231.00;5014756;28;20142;-77
2022/04/04 11:01:43;;;;;;;1.92;1.20;;;;;;;14.46;17.73;98214.25;4996264;28;20097;-77
2022/04/04 11:04:25;;;;;;;2.75;1.58;;;;;;;14.64;18.71;98215.25;4994209;28;20482;-77
2022/04/04 11:09:55;;;;;;;2.30;1.52;;;;;;;14.70;17.91;98169.75;4998997;28;20041;-76
2022/04/04 11:12:22;;;;;;;3.38;1.50;;;;;;;14.22;18.69;98190.06;4988115;28;20026;-78
2022/04/04 11:14:57;;;;;;;3.50;1.70;;;;;;;13.98;19.10;98204.13;4981561;28;20093;-77
2022/04/04 11:17:29;;;;;;;2.70;1.55;;;;;;;13.72;19.35;98221.66;5014482;28;20062;-78
2022/04/04 11:20:04;;;;;;;3.42;1.40;;;;;;;13.85;19.39;98222.03;4996619;28;20042;-78
2022/04/04 11:22:34;;;;;;;3.30;1.70;;;;;;;14.06;19.49;98224.66;4994884;28;20038;-77
2022/04/04 11:25:05;;;;;;;4.45;1.95;;;;;;;14.15;18.79;98217.28;5006205;28;20145;-79
2022/04/04 11:27:33;;;;;;;2.85;1.70;;;;;;;14.35;18.75;98189.53;4999675;28;20124;-76
2022/04/04 11:30:02;;;;;;;4.93;1.77;;;;;;;14.95;18.76;98169.50;4979514;28;20040;-79
2022/04/04 11:32:31;;;;;;;3.90;2.25;;;;;;;15.88;17.51;98221.78;4990007;28;20042;-77
2022/04/04 11:35:10;;;;;;;5.60;1.40;;;;;;;16.31;16.76;98196.09;4977318;28;20054;-77
2022/04/04 11:37:49;;;;;;;2.83;1.58;;;;;;;15.97;17.24;98214.31;5010871;28;20172;-77
2022/04/04 11:40:17;;;;;;;4.72;1.50;;;;;;;14.60;17.67;98184.13;4983792;28;20102;-78
2022/04/04 11:42:45;;;;;;;3.03;1.65;;;;;;;15.51;17.64;98215.66;4994972;28;20038;-79
2022/04/04 11:45:14;;;;;;;2.38;1.42;;;;;;;15.54;18.32;98189.38;4971184;28;20047;-78
2022/04/04 11:47:41;;;;;;;3.97;1.80;;;;;;;15.28;17.67;98200.22;5020331;28;20038;-78